createdAt,value
2022-10-26T00:00:49.593Z,99.90
2022-10-26T00:01:53.118Z,99.90
2022-10-26T00:02:56.796Z,99.90
2022-10-26T00:03:58.875Z,99.90
2022-10-26T00:05:01.952Z,99.90
2022-10-26T00:06:09.353Z,99.90
2022-10-26T00:07:12.447Z,99.90
2022-10-26T00:08:14.558Z,99.90
2022-10-26T00:09:17.615Z,99.50
2022-10-26T00:10:21.747Z,99.40
2022-10-26T00:11:25.406Z,98.70
2022-10-26T00:12:27.449Z,99.10
2022-10-26T00:13:30.657Z,98.50
2022-10-26T00:14:32.685Z,99.20
2022-10-26T00:15:35.833Z,99.90
2022-10-26T00:16:37.873Z,99.90
2022-10-26T00:17:42.262Z,99.90
2022-10-26T00:18:44.805Z,99.90
2022-10-26T00:19:47.846Z,99.90
2022-10-26T00:20:49.988Z,99.90
2022-10-26T00:21:53.521Z,99.90
2022-10-26T00:22:55.562Z,99.90
2022-10-26T00:24:00.291Z,99.90
2022-10-26T00:25:02.293Z,99.90
2022-10-26T00:26:06.249Z,99.90
2022-10-26T00:27:08.255Z,99.90
2022-10-26T00:28:11.273Z,99.90
2022-10-26T00:29:13.357Z,99.90
2022-10-26T00:30:16.424Z,99.90
2022-10-26T00:31:18.508Z,99.90
2022-10-26T00:32:21.519Z,99.90
2022-10-26T00:33:24.895Z,99.90
2022-10-26T00:34:27.983Z,99.90
2022-10-26T00:35:45.192Z,99.90
2022-10-26T00:36:49.211Z,99.90
2022-10-26T00:37:54.697Z,99.90
2022-10-26T00:38:58.211Z,99.90
2022-10-26T00:40:00.220Z,99.90
2022-10-26T00:41:03.704Z,99.90
2022-10-26T00:42:05.812Z,99.90
2022-10-26T00:43:16.831Z,99.90
2022-10-26T00:44:58.619Z,99.90
2022-10-26T00:46:03.965Z,99.90
2022-10-26T00:47:06.485Z,99.90
2022-10-26T00:48:15.772Z,99.90
2022-10-26T00:49:21.014Z,99.90
2022-10-26T00:50:28.945Z,99.90
2022-10-26T00:51:35.224Z,99.90
2022-10-26T00:52:39.085Z,99.90
2022-10-26T00:53:41.711Z,99.90
2022-10-26T00:54:45.913Z,99.90
2022-10-26T00:55:52.511Z,99.90
2022-10-26T00:56:56.492Z,99.90
2022-10-26T00:57:59.488Z,99.90
2022-10-26T00:59:06.148Z,99.90
2022-10-26T01:00:09.639Z,99.90
2022-10-26T01:01:12.834Z,99.90
2022-10-26T01:02:14.947Z,99.90
2022-10-26T01:03:18.864Z,99.90
2022-10-26T01:04:22.367Z,99.90
2022-10-26T01:05:25.929Z,99.90
2022-10-26T01:06:29.196Z,99.90
2022-10-26T01:07:32.692Z,99.90
2022-10-26T01:08:34.953Z,99.90
2022-10-26T01:09:38.091Z,99.90
2022-10-26T01:10:41.944Z,99.90
2022-10-26T01:11:44.944Z,99.90
2022-10-26T01:12:47.644Z,99.90
2022-10-26T01:13:53.384Z,99.90
2022-10-26T01:14:55.496Z,99.90
2022-10-26T01:16:08.825Z,99.90
2022-10-26T01:17:25.278Z,99.90
2022-10-26T01:18:38.790Z,99.90
2022-10-26T01:20:07.469Z,99.90
2022-10-26T01:21:49.237Z,99.90
2022-10-26T01:22:57.799Z,99.90
2022-10-26T01:24:19.829Z,99.90
2022-10-26T01:25:41.010Z,99.90
2022-10-26T01:26:58.305Z,99.90
2022-10-26T01:28:03.933Z,99.90
2022-10-26T01:29:29.428Z,99.90
2022-10-26T01:30:40.025Z,99.90
2022-10-26T01:31:46.854Z,99.90
2022-10-26T01:33:01.897Z,99.90
2022-10-26T01:34:09.023Z,99.90
2022-10-26T01:35:15.442Z,99.90
2022-10-26T01:36:24.923Z,99.90
2022-10-26T01:37:31.144Z,99.90
2022-10-26T01:38:40.713Z,99.90
2022-10-26T01:39:48.770Z,99.90
2022-10-26T01:40:58.485Z,99.90
2022-10-26T01:42:02.819Z,99.90
2022-10-26T01:43:10.069Z,99.90
2022-10-26T01:44:17.890Z,99.90
2022-10-26T01:45:21.473Z,99.90
2022-10-26T01:46:27.232Z,99.90
2022-10-26T01:47:32.487Z,99.90
2022-10-26T01:48:36.486Z,99.90
2022-10-26T01:49:43.474Z,99.90
2022-10-26T01:50:48.025Z,99.90
2022-10-26T01:51:51.506Z,99.90
2022-10-26T01:52:54.868Z,99.90
2022-10-26T01:53:59.595Z,99.90
2022-10-26T01:55:02.783Z,99.90
2022-10-26T01:56:06.524Z,99.90
2022-10-26T01:57:11.410Z,99.90
2022-10-26T01:58:41.811Z,99.90
2022-10-26T01:59:57.746Z,99.90
2022-10-26T02:01:07.696Z,99.90
2022-10-26T02:02:44.190Z,99.90
2022-10-26T02:03:58.866Z,99.90
2022-10-26T02:05:34.510Z,98.80
2022-10-26T02:06:49.795Z,97.60
2022-10-26T02:07:57.928Z,95.70
2022-10-26T02:09:12.212Z,94.60
2022-10-26T02:10:25.718Z,94.10
2022-10-26T02:11:38.917Z,92.80
2022-10-26T02:12:51.762Z,91.40
2022-10-26T02:14:01.156Z,90.70
2022-10-26T02:15:07.904Z,90.40
2022-10-26T02:16:20.216Z,89.60
2022-10-26T02:17:28.108Z,88.40
2022-10-26T02:18:35.104Z,89.70
2022-10-26T02:19:44.659Z,91.50
2022-10-26T02:20:52.377Z,88.40
2022-10-26T02:22:00.455Z,85.90
2022-10-26T02:23:08.050Z,86.80
2022-10-26T02:24:13.982Z,90.30
2022-10-26T02:25:22.387Z,91.00
2022-10-26T02:26:28.097Z,92.60
2022-10-26T02:27:35.594Z,93.50
2022-10-26T02:28:43.496Z,94.10
2022-10-26T02:29:48.734Z,95.60
2022-10-26T02:30:55.132Z,96.40
2022-10-26T02:31:58.933Z,97.40
2022-10-26T02:33:01.944Z,99.20
2022-10-26T02:34:08.861Z,99.90
2022-10-26T02:35:14.541Z,99.90
2022-10-26T02:36:21.735Z,99.90
2022-10-26T02:37:25.908Z,99.90
2022-10-26T02:38:31.965Z,99.90
2022-10-26T02:39:37.476Z,99.90
2022-10-26T02:40:42.149Z,99.90
2022-10-26T02:41:45.823Z,99.90
2022-10-26T02:42:51.665Z,99.90
2022-10-26T02:43:57.614Z,99.90
2022-10-26T02:45:04.270Z,99.90
2022-10-26T02:46:10.676Z,99.90
2022-10-26T02:47:14.413Z,99.90
2022-10-26T02:48:16.849Z,99.90
2022-10-26T02:49:20.486Z,99.90
2022-10-26T02:50:29.946Z,99.90
2022-10-26T02:51:40.119Z,99.90
2022-10-26T02:52:48.682Z,99.90
2022-10-26T02:53:58.733Z,99.90
2022-10-26T02:55:04.699Z,99.90
2022-10-26T02:56:16.423Z,99.90
2022-10-26T02:57:24.391Z,99.90
2022-10-26T02:58:31.527Z,99.90
2022-10-26T02:59:36.586Z,99.90
2022-10-26T03:00:40.188Z,99.90
2022-10-26T03:01:42.832Z,99.90
2022-10-26T03:02:52.247Z,99.90
2022-10-26T03:03:57.419Z,99.90
2022-10-26T03:05:10.600Z,99.90
2022-10-26T03:06:21.086Z,99.90
2022-10-26T03:07:24.831Z,99.90
2022-10-26T03:08:30.096Z,99.90
2022-10-26T03:09:33.122Z,99.90
2022-10-26T03:10:39.985Z,99.90
2022-10-26T03:11:42.973Z,99.90
2022-10-26T03:12:47.024Z,99.90
2022-10-26T03:13:50.325Z,99.90
2022-10-26T03:14:52.359Z,99.90
2022-10-26T03:15:57.569Z,99.90
2022-10-26T03:16:59.638Z,99.90
2022-10-26T03:18:02.767Z,99.90
2022-10-26T03:19:05.592Z,99.90
2022-10-26T03:20:10.058Z,99.90
2022-10-26T03:21:13.445Z,99.90
2022-10-26T03:22:16.458Z,99.90
2022-10-26T03:23:18.475Z,99.90
2022-10-26T03:24:21.521Z,99.90
2022-10-26T03:25:23.615Z,99.90
2022-10-26T03:26:26.692Z,99.90
2022-10-26T03:27:28.763Z,99.90
2022-10-26T03:28:31.810Z,99.90
2022-10-26T03:29:34.543Z,99.90
2022-10-26T03:30:37.932Z,99.90
2022-10-26T03:31:40.019Z,99.90
2022-10-26T03:32:43.017Z,99.90
2022-10-26T03:33:45.081Z,99.90
2022-10-26T03:34:48.188Z,99.90
2022-10-26T03:35:54.902Z,99.90
2022-10-26T03:36:59.238Z,99.90
2022-10-26T03:38:01.325Z,99.90
2022-10-26T03:39:04.366Z,99.90
2022-10-26T03:40:07.751Z,99.90
2022-10-26T03:41:10.747Z,99.90
2022-10-26T03:42:12.807Z,99.90
2022-10-26T03:43:15.849Z,99.90
2022-10-26T03:44:17.864Z,99.90
2022-10-26T03:45:20.852Z,99.90
2022-10-26T03:46:22.958Z,99.90
2022-10-26T03:47:25.927Z,99.90
2022-10-26T03:48:27.999Z,99.90
2022-10-26T03:49:31.005Z,99.90
2022-10-26T03:50:33.069Z,99.90
2022-10-26T03:51:36.162Z,99.90
2022-10-26T03:52:40.089Z,99.90
2022-10-26T03:53:43.095Z,99.90
2022-10-26T03:54:45.143Z,99.90
2022-10-26T03:55:48.127Z,99.90
2022-10-26T03:56:52.727Z,99.90
2022-10-26T03:57:58.157Z,99.90
2022-10-26T03:59:00.345Z,99.90
2022-10-26T04:00:03.383Z,99.90
2022-10-26T04:01:13.855Z,99.90
2022-10-26T04:02:17.512Z,99.90
2022-10-26T04:03:20.626Z,99.90
2022-10-26T04:04:22.735Z,99.90
2022-10-26T04:05:27.024Z,99.90
2022-10-26T04:06:29.031Z,99.90
2022-10-26T04:07:32.143Z,99.90
2022-10-26T04:08:35.557Z,99.90
2022-10-26T04:09:38.579Z,99.90
2022-10-26T04:10:40.648Z,99.90
2022-10-26T04:11:43.644Z,99.90
2022-10-26T04:12:45.681Z,99.90
2022-10-26T04:13:49.368Z,99.90
2022-10-26T04:14:51.777Z,99.90
2022-10-26T04:15:54.804Z,99.90
2022-10-26T04:16:56.860Z,99.90
2022-10-26T04:18:01.619Z,99.90
2022-10-26T04:19:04.054Z,99.90
2022-10-26T04:20:08.331Z,99.90
2022-10-26T04:21:10.386Z,99.90
2022-10-26T04:22:13.369Z,99.90
2022-10-26T04:23:17.175Z,99.90
2022-10-26T04:24:21.576Z,99.90
2022-10-26T04:25:24.299Z,99.90
2022-10-26T04:26:28.984Z,99.90
2022-10-26T04:27:31.083Z,99.90
2022-10-26T04:28:34.762Z,99.90
2022-10-26T04:29:36.778Z,99.90
2022-10-26T04:30:40.573Z,99.90
2022-10-26T04:32:47.194Z,99.90
2022-10-26T04:33:49.522Z,99.90
2022-10-26T04:34:54.250Z,99.90
2022-10-26T04:35:59.529Z,99.90
2022-10-26T04:37:02.538Z,99.90
2022-10-26T04:38:06.900Z,99.90
2022-10-26T04:39:09.917Z,99.90
2022-10-26T04:40:13.336Z,99.90
2022-10-26T04:41:16.382Z,99.90
2022-10-26T04:42:18.396Z,99.90
2022-10-26T04:43:21.432Z,99.90
2022-10-26T04:44:23.506Z,99.90
2022-10-26T04:45:28.122Z,99.90
2022-10-26T04:46:30.176Z,99.90
2022-10-26T04:47:33.152Z,99.90
2022-10-26T04:48:36.192Z,99.90
2022-10-26T04:49:38.240Z,99.90
2022-10-26T04:50:41.742Z,99.90
2022-10-26T04:51:45.341Z,99.90
2022-10-26T04:52:52.015Z,99.90
2022-10-26T04:53:54.859Z,99.90
2022-10-26T04:54:57.962Z,99.90
2022-10-26T04:56:02.713Z,99.90
2022-10-26T04:57:04.760Z,99.90
2022-10-26T04:58:07.891Z,99.90
2022-10-26T04:59:09.956Z,99.90
2022-10-26T05:00:13.886Z,99.90
2022-10-26T05:01:16.035Z,99.90
2022-10-26T05:02:21.206Z,99.90
2022-10-26T05:03:23.576Z,99.90
2022-10-26T05:04:26.578Z,99.90
2022-10-26T05:05:29.409Z,99.90
2022-10-26T05:06:32.395Z,99.90
2022-10-26T05:07:34.442Z,99.90
2022-10-26T05:08:37.619Z,99.90
2022-10-26T05:09:39.663Z,99.90
2022-10-26T05:10:42.713Z,99.90
2022-10-26T05:11:47.112Z,99.90
2022-10-26T05:12:51.560Z,99.90
2022-10-26T05:13:54.581Z,99.90
2022-10-26T05:14:59.083Z,99.90
2022-10-26T05:16:02.115Z,99.90
2022-10-26T05:17:04.148Z,99.90
2022-10-26T05:18:08.978Z,99.90
2022-10-26T05:19:11.185Z,99.90
2022-10-26T05:20:14.491Z,99.90
2022-10-26T05:21:19.684Z,99.90
2022-10-26T05:22:21.903Z,99.90
2022-10-26T05:23:24.997Z,99.90
2022-10-26T05:24:27.997Z,99.90
2022-10-26T05:25:31.933Z,99.90
2022-10-26T05:26:35.171Z,99.90
2022-10-26T05:27:38.551Z,99.90
2022-10-26T05:28:41.634Z,99.90
2022-10-26T05:29:44.659Z,99.90
2022-10-26T05:30:47.061Z,99.90
2022-10-26T05:31:50.094Z,99.90
2022-10-26T05:32:54.469Z,99.90
2022-10-26T05:33:57.602Z,99.90
2022-10-26T05:34:59.611Z,99.90
2022-10-26T05:36:02.661Z,99.90
2022-10-26T05:37:05.629Z,99.90
2022-10-26T05:38:08.631Z,99.90
2022-10-26T05:39:11.612Z,99.90
2022-10-26T05:40:13.853Z,99.90
2022-10-26T05:41:17.013Z,99.90
2022-10-26T05:42:20.599Z,99.90
2022-10-26T05:43:27.119Z,99.90
2022-10-26T05:44:30.140Z,99.90
2022-10-26T05:45:32.193Z,99.90
2022-10-26T05:46:35.255Z,99.90
2022-10-26T05:47:38.760Z,99.90
2022-10-26T05:48:41.797Z,99.90
2022-10-26T05:49:43.844Z,99.90
2022-10-26T05:50:46.973Z,99.90
2022-10-26T05:51:48.976Z,99.90
2022-10-26T05:52:52.007Z,99.90
2022-10-26T05:53:54.693Z,99.90
2022-10-26T05:54:57.786Z,99.90
2022-10-26T05:56:01.488Z,99.90
2022-10-26T05:57:04.191Z,99.90
2022-10-26T05:58:12.159Z,99.90
2022-10-26T05:59:17.748Z,99.90
2022-10-26T06:00:22.829Z,99.90
2022-10-26T06:01:36.326Z,99.90
2022-10-26T06:02:48.209Z,99.90
2022-10-26T06:04:16.546Z,99.90
2022-10-26T06:05:23.925Z,99.90
2022-10-26T06:06:28.007Z,99.90
2022-10-26T06:07:31.620Z,99.90
2022-10-26T06:08:35.141Z,99.90
2022-10-26T06:09:38.009Z,99.90
2022-10-26T06:10:41.834Z,99.90
2022-10-26T06:11:44.673Z,99.90
2022-10-26T06:12:48.624Z,99.90
2022-10-26T06:13:51.578Z,99.90
2022-10-26T06:14:56.910Z,99.90
2022-10-26T06:16:10.342Z,99.90
2022-10-26T06:17:30.626Z,99.90
2022-10-26T06:18:42.816Z,99.90
2022-10-26T06:20:04.200Z,99.90
2022-10-26T06:21:25.673Z,99.90
2022-10-26T06:22:40.368Z,99.90
2022-10-26T06:23:50.030Z,99.90
2022-10-26T06:25:01.627Z,99.90
2022-10-26T06:26:11.960Z,99.90
2022-10-26T06:27:24.861Z,99.90
2022-10-26T06:28:36.910Z,99.90
2022-10-26T06:29:48.553Z,99.90
2022-10-26T06:30:53.399Z,99.90
2022-10-26T06:31:55.507Z,99.90
2022-10-26T06:33:06.676Z,99.90
2022-10-26T06:34:28.120Z,99.90
2022-10-26T06:35:38.430Z,99.90
2022-10-26T06:36:42.363Z,99.90
2022-10-26T06:37:45.818Z,99.90
2022-10-26T06:38:51.745Z,99.90
2022-10-26T06:39:56.847Z,99.90
2022-10-26T06:40:59.894Z,99.90
2022-10-26T06:42:03.485Z,99.90
2022-10-26T06:43:12.573Z,99.90
2022-10-26T06:44:22.433Z,99.90
2022-10-26T06:45:26.059Z,99.90
2022-10-26T06:46:39.804Z,99.90
2022-10-26T06:47:50.497Z,99.90
2022-10-26T06:49:00.675Z,99.90
2022-10-26T06:50:10.752Z,99.90
2022-10-26T06:51:16.250Z,99.90
2022-10-26T06:52:29.138Z,99.90
2022-10-26T06:53:36.920Z,99.90
2022-10-26T06:54:48.541Z,99.90
2022-10-26T06:55:51.183Z,99.90
2022-10-26T06:56:54.990Z,99.90
2022-10-26T06:57:57.180Z,99.90
2022-10-26T06:59:07.780Z,99.90
2022-10-26T07:00:19.828Z,99.90
2022-10-26T07:01:22.078Z,99.90
2022-10-26T07:02:26.812Z,99.90
2022-10-26T07:03:29.927Z,99.90
2022-10-26T07:04:32.042Z,99.90
2022-10-26T07:05:35.077Z,99.90
2022-10-26T07:06:39.254Z,99.90
2022-10-26T07:07:44.538Z,99.90
2022-10-26T07:08:46.661Z,99.90
2022-10-26T07:09:50.910Z,99.90
2022-10-26T07:10:52.966Z,99.90
2022-10-26T07:11:56.005Z,99.90
2022-10-26T07:12:59.038Z,99.90
2022-10-26T07:14:01.077Z,99.90
2022-10-26T07:15:04.539Z,99.90
2022-10-26T07:16:08.109Z,99.90
2022-10-26T07:17:11.901Z,99.90
2022-10-26T07:18:16.285Z,99.90
2022-10-26T07:19:18.316Z,99.90
2022-10-26T07:20:22.543Z,99.90
2022-10-26T07:21:25.562Z,99.90
2022-10-26T07:22:27.601Z,99.90
2022-10-26T07:24:38.607Z,99.90
2022-10-26T07:25:42.364Z,99.90
2022-10-26T07:26:44.443Z,98.70
2022-10-26T07:27:47.751Z,99.00
2022-10-26T07:28:51.188Z,94.90
2022-10-26T07:29:53.258Z,95.50
2022-10-26T07:30:56.377Z,95.30
2022-10-26T07:31:58.452Z,92.70
2022-10-26T07:33:02.595Z,88.20
2022-10-26T07:34:07.218Z,85.90
2022-10-26T07:35:09.881Z,83.90
2022-10-26T07:36:13.122Z,81.80
2022-10-26T07:37:15.673Z,80.90
2022-10-26T07:38:18.757Z,79.70
2022-10-26T07:39:21.873Z,77.50
2022-10-26T07:40:24.005Z,77.60
2022-10-26T07:41:27.006Z,76.90
2022-10-26T07:42:29.104Z,74.60
2022-10-26T07:43:32.421Z,74.20
2022-10-26T07:44:34.483Z,74.90
2022-10-26T07:45:37.781Z,74.50
2022-10-26T07:46:40.785Z,71.20
2022-10-26T07:47:42.824Z,71.20
2022-10-26T07:48:45.891Z,72.30
2022-10-26T07:49:50.267Z,71.50
2022-10-26T07:50:53.259Z,71.10
2022-10-26T07:51:55.352Z,70.60
2022-10-26T07:52:59.613Z,71.10
2022-10-26T07:54:01.646Z,70.20
2022-10-26T07:55:04.924Z,70.60
2022-10-26T07:56:07.794Z,70.00
2022-10-26T07:57:10.899Z,69.30
2022-10-26T07:58:13.924Z,68.50
2022-10-26T07:59:17.174Z,67.80
2022-10-26T08:00:20.380Z,66.60
2022-10-26T08:01:22.588Z,65.80
2022-10-26T08:02:25.745Z,66.00
2022-10-26T08:03:27.803Z,65.50
2022-10-26T08:04:30.788Z,64.40
2022-10-26T08:05:34.192Z,64.40
2022-10-26T08:06:37.713Z,63.30
2022-10-26T08:07:44.611Z,63.80
2022-10-26T08:08:47.843Z,63.40
2022-10-26T08:09:49.893Z,63.40
2022-10-26T08:10:53.127Z,63.90
2022-10-26T08:11:55.179Z,62.90
2022-10-26T08:12:58.247Z,62.40
2022-10-26T08:14:01.243Z,62.80
2022-10-26T08:15:03.429Z,62.30
2022-10-26T08:16:07.520Z,62.10
2022-10-26T08:17:09.853Z,61.60
2022-10-26T08:18:12.853Z,62.10
2022-10-26T08:19:15.861Z,62.10
2022-10-26T08:20:17.980Z,61.50
2022-10-26T08:21:36.320Z,61.60
2022-10-26T08:22:42.790Z,62.30
2022-10-26T08:23:44.900Z,61.90
2022-10-26T08:24:47.901Z,61.60
2022-10-26T08:25:50.884Z,60.80
2022-10-26T08:26:53.015Z,61.10
2022-10-26T08:27:57.290Z,60.40
2022-10-26T08:28:59.311Z,60.80
2022-10-26T08:30:02.306Z,60.60
2022-10-26T08:31:04.573Z,61.10
2022-10-26T08:32:07.721Z,60.70
2022-10-26T08:33:12.114Z,61.50
2022-10-26T08:34:14.227Z,60.80
2022-10-26T08:35:17.402Z,60.80
2022-10-26T08:36:25.548Z,61.20
2022-10-26T08:37:28.928Z,61.30
2022-10-26T08:38:33.809Z,61.90
2022-10-26T08:39:35.840Z,61.50
2022-10-26T08:40:41.600Z,61.30
2022-10-26T08:41:47.597Z,61.00
2022-10-26T08:42:53.113Z,60.60
2022-10-26T08:43:59.206Z,60.40
2022-10-26T08:45:06.544Z,60.50
2022-10-26T08:46:13.360Z,59.80
2022-10-26T08:47:21.425Z,59.60
2022-10-26T08:48:28.424Z,59.60
2022-10-26T08:49:40.094Z,60.20
2022-10-26T08:50:46.682Z,59.60
2022-10-26T08:51:53.191Z,59.70
2022-10-26T08:53:03.838Z,59.80
2022-10-26T08:54:14.177Z,59.50
2022-10-26T08:55:20.783Z,59.90
2022-10-26T08:56:26.670Z,60.30
2022-10-26T08:57:34.969Z,60.40
2022-10-26T08:58:41.317Z,60.10
2022-10-26T08:59:53.599Z,60.40
2022-10-26T09:00:56.709Z,60.10
2022-10-26T09:01:59.043Z,60.40
2022-10-26T09:03:02.066Z,60.10
2022-10-26T09:04:10.370Z,60.40
2022-10-26T09:05:17.960Z,60.20
2022-10-26T09:06:30.604Z,60.20
2022-10-26T09:07:47.388Z,60.30
2022-10-26T09:08:58.831Z,59.80
2022-10-26T09:10:11.303Z,59.90
2022-10-26T09:11:24.510Z,60.40
2022-10-26T09:12:38.737Z,60.30
2022-10-26T09:13:52.653Z,60.30
2022-10-26T09:15:12.970Z,59.90
2022-10-26T09:16:24.762Z,60.50
2022-10-26T09:17:37.868Z,60.20
2022-10-26T09:18:55.849Z,59.80
2022-10-26T09:20:14.495Z,59.20
2022-10-26T09:21:30.380Z,59.30
2022-10-26T09:22:44.146Z,59.00
2022-10-26T09:24:02.614Z,58.80
2022-10-26T09:25:16.323Z,58.30
2022-10-26T09:26:29.433Z,58.20
2022-10-26T09:27:41.162Z,58.10
2022-10-26T09:28:48.159Z,57.90
2022-10-26T09:29:52.464Z,57.90
2022-10-26T09:30:57.989Z,57.60
2022-10-26T09:32:04.536Z,57.80
2022-10-26T09:33:15.330Z,57.20
2022-10-26T09:34:25.312Z,56.80
2022-10-26T09:35:30.930Z,56.70
2022-10-26T09:36:36.711Z,56.60
2022-10-26T09:37:46.950Z,56.20
2022-10-26T09:38:56.206Z,56.50
2022-10-26T09:40:08.629Z,56.00
2022-10-26T09:41:29.529Z,55.00
2022-10-26T09:42:41.127Z,55.00
2022-10-26T09:43:50.190Z,55.20
2022-10-26T09:44:59.070Z,55.20
2022-10-26T09:46:02.208Z,54.90
2022-10-26T09:47:12.162Z,54.80
2022-10-26T09:48:33.167Z,55.10
2022-10-26T09:49:43.333Z,54.50
2022-10-26T09:50:49.066Z,54.30
2022-10-26T09:51:52.171Z,54.20
2022-10-26T09:52:56.517Z,54.10
2022-10-26T09:54:01.826Z,53.90
2022-10-26T09:55:05.183Z,54.30
2022-10-26T09:56:11.453Z,54.10
2022-10-26T09:57:15.983Z,53.90
2022-10-26T09:58:23.061Z,53.70
2022-10-26T09:59:26.132Z,53.30
2022-10-26T10:00:29.779Z,53.40
2022-10-26T10:01:36.914Z,53.70
2022-10-26T10:02:44.886Z,53.40
2022-10-26T10:03:47.136Z,52.80
2022-10-26T10:04:50.143Z,52.40
2022-10-26T10:05:53.353Z,52.20
2022-10-26T10:07:14.937Z,52.20
2022-10-26T10:08:22.610Z,51.80
2022-10-26T10:09:24.992Z,51.90
2022-10-26T10:10:27.976Z,52.10
2022-10-26T10:11:40.031Z,52.30
2022-10-26T10:12:42.165Z,51.70
2022-10-26T10:13:46.760Z,51.40
2022-10-26T10:15:00.261Z,50.90
2022-10-26T10:16:07.312Z,51.30
2022-10-26T10:17:20.494Z,51.60
2022-10-26T10:18:23.877Z,50.40
2022-10-26T10:19:28.796Z,50.90
2022-10-26T10:20:33.249Z,50.80
2022-10-26T10:21:38.272Z,50.30
2022-10-26T10:22:56.463Z,50.70
2022-10-26T10:24:00.820Z,50.50
2022-10-26T10:25:06.787Z,50.70
2022-10-26T10:26:12.012Z,50.40
2022-10-26T10:27:18.504Z,50.40
2022-10-26T10:28:23.470Z,51.00
2022-10-26T10:29:26.814Z,51.00
2022-10-26T10:30:32.177Z,50.80
2022-10-26T10:31:34.250Z,51.00
2022-10-26T10:32:39.277Z,51.20
2022-10-26T10:33:45.356Z,51.30
2022-10-26T10:34:49.085Z,51.90
2022-10-26T10:35:52.671Z,51.80
2022-10-26T10:36:56.350Z,51.10
2022-10-26T10:37:58.692Z,51.60
2022-10-26T10:39:03.327Z,51.40
2022-10-26T10:40:09.050Z,51.80
2022-10-26T10:41:19.209Z,52.10
2022-10-26T10:42:27.103Z,52.30
2022-10-26T10:43:29.307Z,52.70
2022-10-26T10:44:34.673Z,52.60
2022-10-26T10:45:37.600Z,52.50
2022-10-26T10:46:40.666Z,53.30
2022-10-26T10:48:56.547Z,52.40
2022-10-26T10:50:03.117Z,53.10
2022-10-26T10:51:12.363Z,52.90
2022-10-26T10:52:25.661Z,53.20
2022-10-26T10:53:34.641Z,52.70
2022-10-26T10:54:40.809Z,52.90
2022-10-26T10:55:54.086Z,52.60
2022-10-26T10:57:04.233Z,52.60
2022-10-26T10:58:16.931Z,52.50
2022-10-26T10:59:41.232Z,52.40
2022-10-26T11:00:49.029Z,52.10
2022-10-26T11:02:01.481Z,51.80
2022-10-26T11:03:32.602Z,51.70
2022-10-26T11:04:54.892Z,51.40
2022-10-26T11:06:05.946Z,51.70
2022-10-26T11:07:11.206Z,51.70
2022-10-26T11:08:20.338Z,51.50
2022-10-26T11:09:28.756Z,51.60
2022-10-26T11:10:36.943Z,51.40
2022-10-26T11:11:45.839Z,51.20
2022-10-26T11:12:54.857Z,51.40
2022-10-26T11:14:02.772Z,51.10
2022-10-26T11:15:11.255Z,51.50
2022-10-26T11:16:20.198Z,51.00
2022-10-26T11:17:27.423Z,51.10
2022-10-26T11:18:33.885Z,51.40
2022-10-26T11:19:43.972Z,50.50
2022-10-26T11:20:51.351Z,50.60
2022-10-26T11:21:55.713Z,50.50
2022-10-26T11:24:19.077Z,50.50
2022-10-26T11:25:27.154Z,51.10
2022-10-26T11:26:39.408Z,51.70
2022-10-26T11:27:51.805Z,51.90
2022-10-26T11:29:00.140Z,51.40
2022-10-26T11:30:07.038Z,51.50
2022-10-26T11:31:14.684Z,51.90
2022-10-26T11:32:23.100Z,51.50
2022-10-26T11:33:31.057Z,50.40
2022-10-26T11:34:40.374Z,50.80
2022-10-26T11:35:47.616Z,50.70
2022-10-26T11:36:54.777Z,50.60
2022-10-26T11:38:04.015Z,50.60
2022-10-26T11:39:14.647Z,50.60
2022-10-26T11:40:25.800Z,50.10
2022-10-26T11:41:36.084Z,50.50
2022-10-26T11:42:42.446Z,49.70
2022-10-26T11:43:48.001Z,49.10
2022-10-26T11:44:56.717Z,49.00
2022-10-26T11:46:06.540Z,49.50
2022-10-26T11:47:16.141Z,49.70
2022-10-26T11:48:24.113Z,49.40
2022-10-26T11:49:32.739Z,49.30
2022-10-26T11:50:41.080Z,49.00
2022-10-26T11:51:46.776Z,49.30
2022-10-26T11:52:54.379Z,49.20
2022-10-26T11:53:58.097Z,49.10
2022-10-26T11:55:02.291Z,48.80
2022-10-26T11:56:12.406Z,48.90
2022-10-26T11:57:18.049Z,48.20
2022-10-26T11:58:24.034Z,48.10
2022-10-26T11:59:32.284Z,48.70
2022-10-26T12:00:41.885Z,48.70
2022-10-26T12:01:44.048Z,48.60
2022-10-26T12:02:49.938Z,48.40
2022-10-26T12:03:54.409Z,48.70
2022-10-26T12:05:04.345Z,48.60
2022-10-26T12:06:07.777Z,48.60
2022-10-26T12:07:16.453Z,48.50
2022-10-26T12:08:25.289Z,48.20
2022-10-26T12:09:34.866Z,48.50
2022-10-26T12:10:42.742Z,49.00
2022-10-26T12:11:50.644Z,49.50
2022-10-26T12:13:01.134Z,49.10
2022-10-26T12:14:14.368Z,49.10
2022-10-26T12:15:30.851Z,48.70
2022-10-26T12:16:55.396Z,49.40
2022-10-26T12:18:10.195Z,50.10
2022-10-26T12:19:18.670Z,50.10
2022-10-26T12:21:03.555Z,49.80
2022-10-26T12:22:11.905Z,50.20
2022-10-26T12:23:23.163Z,49.50
2022-10-26T12:24:39.268Z,49.90
2022-10-26T12:25:41.681Z,49.20
2022-10-26T12:26:53.071Z,49.10
2022-10-26T12:28:00.349Z,49.40
2022-10-26T12:29:36.969Z,50.00
2022-10-26T12:30:40.280Z,49.90
2022-10-26T12:31:43.722Z,49.80
2022-10-26T12:32:55.273Z,49.60
2022-10-26T12:33:57.424Z,49.90
2022-10-26T12:35:05.120Z,50.00
2022-10-26T12:36:41.442Z,49.80
2022-10-26T12:37:43.497Z,49.70
2022-10-26T12:39:02.088Z,49.60
2022-10-26T12:40:40.617Z,49.10
2022-10-26T12:41:57.663Z,49.60
2022-10-26T12:43:35.030Z,49.70
2022-10-26T12:44:41.099Z,49.80
2022-10-26T12:45:44.813Z,50.30
2022-10-26T12:46:47.837Z,50.70
2022-10-26T12:48:10.923Z,49.90
2022-10-26T12:49:59.577Z,50.00
2022-10-26T12:51:18.801Z,49.60
2022-10-26T12:52:23.939Z,50.00
2022-10-26T12:53:27.537Z,50.10
2022-10-26T12:54:40.027Z,49.90
2022-10-26T12:56:09.320Z,49.60
2022-10-26T12:57:21.025Z,49.30
2022-10-26T12:59:04.922Z,49.10
2022-10-26T13:00:15.355Z,48.60
2022-10-26T13:01:37.124Z,48.60
2022-10-26T13:02:53.544Z,48.60
2022-10-26T13:04:06.374Z,48.60
2022-10-26T13:05:30.496Z,49.00
2022-10-26T13:06:49.537Z,49.00
2022-10-26T13:07:52.790Z,48.70
2022-10-26T13:08:59.211Z,49.00
2022-10-26T13:10:18.501Z,48.80
2022-10-26T13:11:29.678Z,49.30
2022-10-26T13:12:46.205Z,49.30
2022-10-26T13:13:54.225Z,49.00
2022-10-26T13:15:02.057Z,49.80
2022-10-26T13:16:10.141Z,49.40
2022-10-26T13:17:25.488Z,49.80
2022-10-26T13:18:29.087Z,49.40
2022-10-26T13:19:37.198Z,49.60
2022-10-26T13:20:54.852Z,49.70
2022-10-26T13:21:58.780Z,49.90
2022-10-26T13:23:03.062Z,49.60
2022-10-26T13:24:08.121Z,49.70
2022-10-26T13:25:23.239Z,49.50
2022-10-26T13:26:28.084Z,48.80
2022-10-26T13:27:45.936Z,48.50
2022-10-26T13:28:53.419Z,48.80
2022-10-26T13:30:35.656Z,48.60
2022-10-26T13:31:59.215Z,48.90
2022-10-26T13:33:02.917Z,48.50
2022-10-26T13:35:24.883Z,48.70
2022-10-26T13:36:33.906Z,48.80
2022-10-26T13:37:37.706Z,49.00
2022-10-26T13:38:41.033Z,49.00
2022-10-26T13:39:45.715Z,49.50
2022-10-26T13:40:49.785Z,48.90
2022-10-26T13:41:54.847Z,48.50
2022-10-26T13:42:59.821Z,48.60
2022-10-26T13:44:06.795Z,48.20
2022-10-26T13:45:13.464Z,48.40
2022-10-26T13:46:27.542Z,48.50
2022-10-26T13:47:41.472Z,48.50
2022-10-26T13:48:49.176Z,48.30
2022-10-26T13:49:55.427Z,48.60
2022-10-26T13:51:00.864Z,48.50
2022-10-26T13:52:05.320Z,48.40
2022-10-26T13:53:14.056Z,48.70
2022-10-26T13:54:25.927Z,48.50
2022-10-26T13:55:33.736Z,47.70
2022-10-26T13:56:42.044Z,47.90
2022-10-26T13:57:50.114Z,48.10
2022-10-26T13:59:00.081Z,47.80
2022-10-26T14:00:09.951Z,47.60
2022-10-26T14:01:16.420Z,47.70
2022-10-26T14:02:24.929Z,47.90
2022-10-26T14:03:28.315Z,47.50
2022-10-26T14:04:31.283Z,47.70
2022-10-26T14:05:34.328Z,47.50
2022-10-26T14:06:39.621Z,47.70
2022-10-26T14:07:45.794Z,47.90
2022-10-26T14:08:49.480Z,47.80
2022-10-26T14:09:54.783Z,48.20
2022-10-26T14:11:00.049Z,48.00
2022-10-26T14:12:03.466Z,47.00
2022-10-26T14:13:08.741Z,46.70
2022-10-26T14:14:17.039Z,46.60
2022-10-26T14:15:24.898Z,47.00
2022-10-26T14:16:31.129Z,47.50
2022-10-26T14:17:34.858Z,47.50
2022-10-26T14:18:38.780Z,47.60
2022-10-26T14:19:42.501Z,47.00
2022-10-26T14:20:49.833Z,47.50
2022-10-26T14:21:54.138Z,47.50
2022-10-26T14:22:56.451Z,47.70
2022-10-26T14:24:04.165Z,47.80
2022-10-26T14:25:26.708Z,47.70
2022-10-26T14:26:41.620Z,47.80
2022-10-26T14:27:44.275Z,48.20
2022-10-26T14:28:50.450Z,48.60